METAR Data

Data at: 0503 UTC 18 Oct 2018

METAR for:KSAN (San Diego Intl Arpt, CA, US)
Text:KSAN 180451Z 35003KT 10SM CLR 21/07 A3005 RMK AO2 SLP176 T02060067
Temperature: 20.6°C ( 69°F)
Dewpoint: 6.7°C ( 44°F) [RH = 40%]
Pressure (altimeter):30.05 inches Hg (1017.7 mb) [Sea level pressure: 1017.6 mb]
Winds:from the N (350 degrees) at 3 MPH (3 knots; 1.5 m/s)
Visibility:10 or more sm (16+ km)
Ceiling:at least 12,000 feet AGL
Clouds:sky clear below 12,000 feet AGL